createdAt,value
2022-07-28T00:00:00.512Z,63.1
2022-07-28T00:05:00.204Z,63.2
2022-07-28T00:10:00.942Z,63.2
2022-07-28T00:15:00.350Z,63.5
2022-07-28T00:20:00.298Z,63.1
2022-07-28T00:25:00.264Z,62.6
2022-07-28T00:30:00.250Z,62.8
2022-07-28T00:34:59.982Z,63.4
2022-07-28T00:40:00.459Z,-1
2022-07-28T00:44:59.833Z,63.7
2022-07-28T00:50:00.292Z,63.8
2022-07-28T00:55:01.937Z,63.9
2022-07-28T01:00:00.353Z,64.5
2022-07-28T01:05:00.180Z,64.3
2022-07-28T01:10:03.296Z,64
2022-07-28T01:15:02.249Z,64.8
2022-07-28T01:20:03.018Z,64.6
2022-07-28T01:24:59.997Z,65.1
2022-07-28T01:29:59.996Z,64.9
2022-07-28T01:34:59.949Z,64.7
2022-07-28T01:40:01.711Z,-1
2022-07-28T01:45:01.054Z,64.6
2022-07-28T01:50:02.382Z,65.5
2022-07-28T01:55:00.233Z,64.7
2022-07-28T02:00:00.240Z,66
2022-07-28T02:04:59.923Z,66.1
2022-07-28T02:09:59.937Z,65.7
2022-07-28T02:14:59.751Z,64.8
2022-07-28T02:20:00.259Z,65.4
2022-07-28T02:24:59.910Z,65.4
2022-07-28T02:29:59.807Z,65.5
2022-07-28T02:34:59.932Z,65.6
2022-07-28T02:40:00.608Z,66.3
2022-07-28T02:44:59.787Z,65.9
2022-07-28T02:50:00.129Z,66.1
2022-07-28T02:54:59.937Z,66.3
2022-07-28T02:59:59.905Z,65.7
2022-07-28T03:05:00.201Z,66.2
2022-07-28T03:09:59.990Z,65.8
2022-07-28T03:14:59.981Z,65.6
2022-07-28T03:19:59.757Z,65.2
2022-07-28T03:25:00.028Z,64.9
2022-07-28T03:30:04.166Z,64.7
2022-07-28T03:34:59.798Z,64.9
2022-07-28T03:39:59.785Z,65.3
2022-07-28T03:44:59.798Z,64.9
2022-07-28T03:49:59.948Z,65
2022-07-28T03:54:59.765Z,65.2
2022-07-28T04:00:00.220Z,64.7
2022-07-28T04:05:00.149Z,65
2022-07-28T04:09:59.793Z,65
2022-07-28T04:14:59.726Z,65.2
2022-07-28T04:20:00.067Z,65.3
2022-07-28T04:24:59.927Z,65.2
2022-07-28T04:29:59.973Z,64.9
2022-07-28T04:34:59.901Z,64.4
2022-07-28T04:39:59.914Z,64.3
2022-07-28T04:44:59.753Z,64.9
2022-07-28T04:50:00.282Z,64.5
2022-07-28T04:54:59.761Z,64.9
2022-07-28T04:59:59.691Z,64.2
2022-07-28T05:05:00.055Z,65.2
2022-07-28T05:09:59.861Z,65.2
2022-07-28T05:14:59.995Z,65.4
2022-07-28T05:19:59.693Z,64.8
2022-07-28T05:24:59.666Z,64.7
2022-07-28T05:29:59.851Z,64.7
2022-07-28T05:34:59.792Z,64
2022-07-28T05:39:59.770Z,63.8
2022-07-28T05:44:59.746Z,62.6
2022-07-28T05:49:59.729Z,62.5
2022-07-28T05:54:59.810Z,62
2022-07-28T06:00:00.098Z,62.1
2022-07-28T06:04:59.702Z,62.2
2022-07-28T06:09:59.966Z,62.8
2022-07-28T06:14:59.630Z,61.9
2022-07-28T06:19:59.630Z,61.9
2022-07-28T06:24:59.882Z,61.8
2022-07-28T06:29:59.849Z,61.5
2022-07-28T06:34:59.888Z,61.1
2022-07-28T06:39:59.912Z,61
2022-07-28T06:45:00.078Z,60.7
2022-07-28T06:49:59.821Z,60.1
2022-07-28T06:54:59.533Z,59.9
2022-07-28T06:59:59.921Z,59.5
2022-07-28T07:04:59.594Z,58.6
2022-07-28T07:09:59.654Z,58.8
2022-07-28T07:14:59.650Z,56.6
2022-07-28T07:19:59.666Z,55.8
2022-07-28T07:24:59.538Z,54.5
2022-07-28T07:29:59.626Z,53.9
2022-07-28T07:34:59.790Z,53.7
2022-07-28T07:40:00.818Z,52.2
2022-07-28T07:44:59.481Z,51.3
2022-07-28T07:50:03.732Z,51
2022-07-28T07:54:59.819Z,50.7
2022-07-28T07:59:59.606Z,50.7
2022-07-28T08:04:59.765Z,50.8
2022-07-28T08:09:59.759Z,50.2
2022-07-28T08:14:59.667Z,49.7
2022-07-28T08:19:59.590Z,50.7
2022-07-28T08:24:59.683Z,50.3
2022-07-28T08:29:59.725Z,50.8
2022-07-28T08:35:29.907Z,50
2022-07-28T08:39:59.536Z,49.7
2022-07-28T08:45:00.102Z,49.7
2022-07-28T08:49:59.578Z,48
2022-07-28T08:55:00.894Z,46.8
2022-07-28T08:59:59.478Z,47.3
2022-07-28T09:05:00.377Z,47
2022-07-28T09:10:02.745Z,45.3
2022-07-28T09:14:59.554Z,45.6
2022-07-28T09:19:59.536Z,45.6
2022-07-28T09:24:59.600Z,45.1
2022-07-28T09:29:59.686Z,45
2022-07-28T09:34:59.449Z,43.2
2022-07-28T09:39:59.745Z,43
2022-07-28T09:45:21.392Z,43.4
2022-07-28T09:49:59.554Z,42.5
2022-07-28T09:55:00.156Z,41.6
2022-07-28T09:59:59.519Z,-1
2022-07-28T10:04:59.689Z,41.7
2022-07-28T10:09:59.552Z,40.8
2022-07-28T10:15:10.611Z,40.3
2022-07-28T10:19:59.599Z,-1
2022-07-28T10:24:59.681Z,40.6
2022-07-28T10:29:59.441Z,40
2022-07-28T10:35:01.465Z,39.7
2022-07-28T10:39:59.386Z,40.7
2022-07-28T10:44:59.985Z,40
2022-07-28T10:49:59.476Z,40.2
2022-07-28T10:54:59.363Z,40.1
2022-07-28T11:00:00.728Z,39.3
2022-07-28T11:04:59.623Z,39.5
2022-07-28T11:09:59.311Z,39.5
2022-07-28T11:15:00.601Z,39.2
2022-07-28T11:20:24.633Z,39
2022-07-28T11:24:59.312Z,38.5
2022-07-28T11:29:59.851Z,38.7
2022-07-28T11:34:59.624Z,38.9
2022-07-28T11:39:59.531Z,38.9
2022-07-28T11:44:59.468Z,38.9
2022-07-28T11:50:15.344Z,39.9
2022-07-28T11:54:59.546Z,38.6
2022-07-28T11:59:59.611Z,38.1
2022-07-28T12:04:59.649Z,38.2
2022-07-28T12:09:59.337Z,37.3
2022-07-28T12:15:04.755Z,38.1
2022-07-28T12:19:59.522Z,37.7
2022-07-28T12:24:59.553Z,37.6
2022-07-28T12:29:59.296Z,36.8
2022-07-28T12:34:59.332Z,36.4
2022-07-28T12:39:59.318Z,36.4
2022-07-28T12:45:00.292Z,35.6
2022-07-28T12:50:08.244Z,36.2
2022-07-28T12:54:59.471Z,35.5
2022-07-28T12:59:59.553Z,36.7
2022-07-28T13:04:59.679Z,37.2
2022-07-28T13:10:00.530Z,33.9
2022-07-28T13:14:59.495Z,33.7
2022-07-28T13:19:59.589Z,35
2022-07-28T13:24:59.207Z,-1
2022-07-28T13:29:59.287Z,34.1
2022-07-28T13:34:59.367Z,34.8
2022-07-28T13:39:59.243Z,34.6
2022-07-28T13:44:59.346Z,34.8
2022-07-28T13:49:59.387Z,34.5
2022-07-28T13:54:59.467Z,35.2
2022-07-28T13:59:59.399Z,35.1
2022-07-28T14:04:59.194Z,35.3
2022-07-28T14:09:59.225Z,35.7
2022-07-28T14:14:59.301Z,36.9
2022-07-28T14:19:59.485Z,37.7
2022-07-28T14:24:59.146Z,37.1
2022-07-28T14:29:59.164Z,33.4
2022-07-28T14:34:59.206Z,33
2022-07-28T14:39:59.483Z,34.8
2022-07-28T14:44:59.429Z,34.9
2022-07-28T14:49:59.411Z,35.5
2022-07-28T14:54:59.465Z,33.8
2022-07-28T14:59:59.421Z,34
2022-07-28T15:04:59.381Z,34.8
2022-07-28T15:09:59.118Z,34.5
2022-07-28T15:14:59.273Z,33.6
2022-07-28T15:19:59.172Z,36.1
2022-07-28T15:24:59.195Z,38.5
2022-07-28T15:29:59.943Z,38.4
2022-07-28T15:34:59.347Z,38.4
2022-07-28T15:39:59.443Z,38.5
2022-07-28T15:45:01.147Z,38.5
2022-07-28T15:49:59.486Z,38.9
2022-07-28T15:54:59.282Z,39.1
2022-07-28T15:59:59.542Z,38.8
2022-07-28T16:04:59.222Z,39.4
2022-07-28T16:09:59.303Z,39.1
2022-07-28T16:14:59.211Z,39.5
2022-07-28T16:19:59.275Z,40.4
2022-07-28T16:24:59.303Z,41.5
2022-07-28T16:29:59.064Z,41.8
2022-07-28T16:34:59.036Z,41.7
2022-07-28T16:39:59.052Z,42.2
2022-07-28T16:44:59.315Z,41.9
2022-07-28T16:49:59.363Z,42.3
2022-07-28T16:54:59.364Z,42.4
2022-07-28T16:59:59.308Z,42.4
2022-07-28T17:04:59.338Z,42.5
2022-07-28T17:09:59.159Z,42.3
2022-07-28T17:14:59.411Z,42.6
2022-07-28T17:19:59.372Z,42.9
2022-07-28T17:24:59.342Z,43.3
2022-07-28T17:29:58.984Z,43.2
2022-07-28T17:34:58.997Z,43.7
2022-07-28T17:39:59.341Z,43.5
2022-07-28T17:44:59.052Z,43.6
2022-07-28T17:50:00.884Z,-1
2022-07-28T17:55:00.746Z,43.8
2022-07-28T18:00:00.692Z,44
2022-07-28T18:05:00.489Z,43.9
2022-07-28T18:10:00.418Z,44.5
2022-07-28T18:15:00.240Z,44.4
2022-07-28T18:20:00.617Z,44.6
2022-07-28T18:25:00.360Z,45.4
2022-07-28T18:30:00.262Z,-1
2022-07-28T18:35:00.509Z,46.2
2022-07-28T18:40:00.379Z,46.2
2022-07-28T18:45:00.224Z,46.6
2022-07-28T18:50:00.542Z,-1
2022-07-28T18:55:00.212Z,47.3
2022-07-28T19:00:00.301Z,47.5
2022-07-28T19:05:00.362Z,47.6
2022-07-28T19:10:00.372Z,47.6
2022-07-28T19:15:00.440Z,48.1
2022-07-28T19:20:00.534Z,48.8
2022-07-28T19:25:00.501Z,48.9
2022-07-28T19:30:00.304Z,49.3
2022-07-28T19:35:00.414Z,49.1
2022-07-28T19:40:00.139Z,49.8
2022-07-28T19:45:00.237Z,49.6
2022-07-28T19:50:00.296Z,50.3
2022-07-28T19:55:00.155Z,50.9
2022-07-28T20:00:00.232Z,50.8
2022-07-28T20:05:00.429Z,51.3
2022-07-28T20:10:00.116Z,51.6
2022-07-28T20:15:00.119Z,51.6
2022-07-28T20:20:00.257Z,52
2022-07-28T20:25:00.311Z,51.9
2022-07-28T20:30:00.428Z,52.1
2022-07-28T20:35:00.066Z,52.3
2022-07-28T20:40:00.214Z,52.5
2022-07-28T20:45:00.411Z,52.7
2022-07-28T20:50:00.453Z,53.5
2022-07-28T20:55:00.391Z,53.2
2022-07-28T21:00:00.348Z,53.6
2022-07-28T21:05:00.308Z,53.6
2022-07-28T21:10:00.350Z,53.6
2022-07-28T21:15:00.135Z,53.9
2022-07-28T21:20:00.324Z,54.7
2022-07-28T21:25:00.408Z,55
2022-07-28T21:30:00.163Z,55.9
2022-07-28T21:35:00.375Z,55.9
2022-07-28T21:40:00.347Z,55.7
2022-07-28T21:45:00.120Z,56.5
2022-07-28T21:50:00.087Z,56.7
2022-07-28T21:55:00.321Z,57.3
2022-07-28T22:00:00.262Z,57.7
2022-07-28T22:05:00.289Z,58
2022-07-28T22:10:00.074Z,58.4
2022-07-28T22:15:00.276Z,58.2
2022-07-28T22:20:00.338Z,59
2022-07-28T22:24:59.984Z,59.3
2022-07-28T22:30:00.278Z,59.3
2022-07-28T22:35:00.329Z,59.3
2022-07-28T22:40:00.337Z,59.8
2022-07-28T22:44:59.999Z,60.5
2022-07-28T22:50:00.499Z,60.7
2022-07-28T23:00:00.324Z,60.5
2022-07-28T23:05:00.143Z,60.8
2022-07-28T23:10:00.434Z,60.9
2022-07-28T23:15:00.333Z,61.2
2022-07-28T23:20:00.173Z,61.5
2022-07-28T23:25:00.271Z,61.5
2022-07-28T23:30:00.279Z,60.9
2022-07-28T23:35:00.256Z,61.9
2022-07-28T23:40:00.280Z,62
2022-07-28T23:45:00.316Z,61.6
2022-07-28T23:50:00.315Z,62
2022-07-28T23:54:59.991Z,61.8
2022-07-28T23:59:59.965Z,62.6
